• Join FlightAware (Why Join?)
  • Login
  • US Flag 
09:41AM EDT


 

Airport Tracker/Info


-or-


 

Live Flight TrackerFlight Track Log ✈ N820JA ✈ 02-Aug-2013 ✈ KGAI - KFRG

Flight Track Log - Related Links

Times and Time Zones

All times are in EDT time to prevent confusion due to time zone crossing. See the N820JA flight status page for this flight to view local times or setup timezone preferences in your user account.

Time Position Orientation Groundspeed Altitude Reporting Facility
EDT Latitude Longitude Course Direction KTS MPH feet Rate Location/Type
12:36PM 39.1837 -77.1311 60° Northeast  Level Estimated
12:37PM 39.1991 -77.0963 60° Northeast  Level Estimated
12:38PM 39.2145 -77.0614 60° Northeast  Level Estimated
12:39PM 39.2298 -77.0265 60° Northeast  Level Estimated
12:40PM 39.2451 -76.9916 60° Northeast  Level Estimated
12:41PM 39.2605 -76.9567 60° Northeast  Level Estimated
12:42PM 39.2758 -76.9217 60° Northeast  Level Estimated
12:43PM 39.2911 -76.8868 60° Northeast  Level Estimated
12:44PM 39.3064 -76.8518 61° Northeast  Level Estimated
12:45PM 39.3217 -76.8168 61° Northeast  Level Estimated
12:46PM 39.3370 -76.7818 61° Northeast  Level Estimated
12:47PM 39.3522 -76.7468 61° Northeast  Level Estimated
12:48PM 39.3675 -76.7118 61° Northeast  Level Estimated
12:49PM 39.3828 -76.6767 61° Northeast  Level Estimated
12:50PM 39.3980 -76.6417 61° Northeast  Level Estimated
12:51PM 39.4132 -76.6066 61° Northeast  Level Estimated
12:52PM 39.4284 -76.5715 61° Northeast  Level Estimated
12:53PM 39.4436 -76.5364 61° Northeast  Level Estimated
12:54PM 39.4589 -76.5013 61° Northeast  Level Estimated
12:55PM 39.4740 -76.4661 61° Northeast  Level Estimated
12:56PM 39.4892 -76.4310 61° Northeast  Level Estimated
12:57PM 39.5044 -76.3958 61° Northeast  Level Estimated
12:58PM 39.5195 -76.3606 61° Northeast  Level Estimated
12:59PM 39.5347 -76.3254 61° Northeast  Level Estimated
01:00PM 39.5498 -76.2902 61° Northeast  Level Estimated
01:01PM 39.5649 -76.2550 61° Northeast  Level Estimated
01:02PM 39.5800 -76.2197 61° Northeast  Level Estimated
01:03PM 39.5951 -76.1844 61° Northeast  Level Estimated
01:04PM 39.6102 -76.1492 61° Northeast  Level Estimated
01:05PM 39.6253 -76.1139 61° Northeast  Level Estimated
01:06PM 39.6404 -76.0786 61° Northeast  Level Estimated
01:07PM 39.6554 -76.0432 61° Northeast  Level Estimated
01:08PM 39.6705 -76.0079 61° Northeast  Level Estimated
01:09PM 39.6855 -75.9725 61° Northeast  Level Estimated
01:10PM 39.7006 -75.9372 61° Northeast  Level Estimated
01:11PM 39.7156 -75.9018 61° Northeast  Level Estimated
01:12PM 39.7306 -75.8664 61° Northeast  Level Estimated
01:13PM 39.7456 -75.8310 61° Northeast  Level Estimated
01:14PM 39.7605 -75.7955 61° Northeast  Level Estimated
01:15PM 39.7755 -75.7601 61° Northeast  Level Estimated
01:16PM 39.7905 -75.7246 61° Northeast  Level Estimated
01:17PM 39.8054 -75.6891 61° Northeast  Level Estimated
01:18PM 39.8204 -75.6537 61° Northeast  Level Estimated
01:19PM 39.8353 -75.6181 61° Northeast  Level Estimated
01:20PM 39.8502 -75.5826 61° Northeast  Level Estimated
01:21PM 39.8651 -75.5471 61° Northeast  Level Estimated
01:22PM 39.8800 -75.5115 61° Northeast  Level Estimated
01:23PM 39.8949 -75.4760 61° Northeast  Level Estimated
01:24PM 39.9098 -75.4404 61° Northeast  Level Estimated
01:25PM 39.9246 -75.4048 61° Northeast  Level Estimated
01:26PM 39.9395 -75.3691 61° Northeast  Level Estimated
01:27PM 39.9543 -75.3335 61° Northeast  Level Estimated
01:28PM 39.9692 -75.2979 61° Northeast  Level Estimated
01:29PM 39.9840 -75.2622 62° Northeast  Level Estimated
01:30PM 39.9988 -75.2265 62° Northeast  Level Estimated
01:31PM 40.0136 -75.1908 62° Northeast  Level Estimated
01:32PM 40.0284 -75.1551 62° Northeast  Level Estimated
01:33PM 40.0432 -75.1194 62° Northeast  Level Estimated
01:34PM 40.0579 -75.0837 62° Northeast  Level Estimated
01:35PM 40.0727 -75.0479 62° Northeast  Level Estimated
01:36PM 40.0874 -75.0121 62° Northeast  Level Estimated
01:37PM 40.1022 -74.9763 62° Northeast  Level Estimated
01:38PM 40.1169 -74.9405 62° Northeast  Level Estimated
01:39PM 40.1316 -74.9047 62° Northeast  Level Estimated
01:40PM 40.1463 -74.8689 62° Northeast  Level Estimated
01:41PM 40.1610 -74.8330 62° Northeast  Level Estimated
01:42PM 40.1757 -74.7972 62° Northeast  Level Estimated
01:43PM 40.1903 -74.7613 62° Northeast  Level Estimated
01:44PM 40.2050 -74.7254 62° Northeast  Level Estimated
01:45PM 40.2196 -74.6895 62° Northeast  Level Estimated
01:45PM 39.2000 -77.1667 62° Northeast 90 104 1,500  Level Potomac TRACON
01:46PM 40.2343 -74.6536 62° Northeast  Level Estimated
01:46PM 39.2167 -77.1500 38° Northeast 109 125 2,000  Level Potomac TRACON
01:47PM 40.2489 -74.6176 62° Northeast  Level Estimated
01:47PM 39.2500 -77.1333 21° North 102 117 2,500  Level Potomac TRACON
01:48PM 40.2635 -74.5817 62° Northeast  Level Estimated
01:48PM 39.2667 -77.1167 38° Northeast 103 119 3,000  Level Potomac TRACON
01:49PM 40.2781 -74.5457 62° Northeast  Level Estimated
01:49PM 39.3000 -77.1000 21° North 100 115 3,400  Level Potomac TRACON
01:50PM 40.2927 -74.5097 62° Northeast  Level Estimated
01:50PM 39.3167 -77.1000 360° North 98 113 3,900  Level Potomac TRACON
01:51PM 40.3073 -74.4737 62° Northeast  Level Estimated
01:51PM 39.3500 -77.0667 38° Northeast 104 120 4,300  Level Potomac TRACON
01:52PM 39.3500 -77.0333 90° East 112 129 4,700 420 Climbing Potomac TRACON
01:53PM 39.3667 -77.0000 57° Northeast 111 128 5,200 420 Climbing Potomac TRACON
01:54PM 39.3667 -76.9667 90° East 109 125 5,600 300 Climbing Potomac TRACON
01:55PM 39.3500 -76.9167 113° Southeast 111 128 5,900 300 Climbing Potomac TRACON
01:56PM 39.3500 -76.8833 90° East 116 133 6,300 360 Climbing Potomac TRACON
01:57PM 39.3500 -76.8333 90° East 127 146 6,700 300 Climbing Potomac TRACON
01:58PM 39.3500 -76.8000 90° East 119 137 7,000 120 Climbing Potomac TRACON
01:59PM 39.3333 -76.7667 123° Southeast 120 138 7,000 -60 Level Potomac TRACON
02:00PM 39.3167 -76.7167 113° Southeast 118 136 6,900  Descending Potomac TRACON
02:02PM 39.3076 -76.6746 106° East  Level FlightAware Approximate
02:02PM 39.2833 -76.6500 106° East 116 133 7,000  Level Potomac TRACON
02:03PM 39.2667 -76.6167 123° Southeast 111 128 7,000  Level Potomac TRACON
02:04PM 39.2667 -76.5833 90° East 108 124 7,000  Level Potomac TRACON
02:06PM 39.2500 -76.5500 123° Southeast 118 136 7,000  Level Potomac TRACON
02:07PM 39.2333 -76.5167 123° Southeast 118 136 7,000  Level Potomac TRACON
02:08PM 39.2333 -76.4667 90° East 117 135 7,000  Level Potomac TRACON
02:09PM 39.2270 -76.4253 101° East  Level FlightAware Approximate
02:11PM 39.2167 -76.3667 101° East 126 145 7,000  Level Potomac TRACON
02:12PM 39.2167 -76.3167 90° East 119 137 7,000  Level Potomac TRACON
02:14PM 39.2167 -76.2333 90° East 117 135 7,000  Level Potomac TRACON
02:15PM 39.2167 -76.1833 90° East 115 132 7,000 -120 Level Potomac TRACON
02:16PM 39.1826 -76.1357 101° East  Level FlightAware Approximate
02:17PM 39.2081 -76.1011 98° East  Level FlightAware Approximate
02:24PM 39.3465 -75.8658 85° East  Level Estimated
02:25PM 39.3329 -75.8273 115° Southeast  Level FlightAware Approximate
02:26PM 39.3193 -75.7889 115° Southeast  Level FlightAware Approximate
02:27PM 39.3057 -75.7505 115° Southeast  Level FlightAware Approximate
02:28PM 39.3264 -75.7178 51° Northeast  Level Estimated
02:29PM 39.3272 -75.6756 89° East  Level FlightAware Approximate
02:30PM 39.3280 -75.6333 89° East  Level FlightAware Approximate
02:31PM 39.3400 -75.5956 68° East  Level FlightAware Approximate
02:32PM 39.3520 -75.5578 68° East  Level FlightAware Approximate
02:32PM 39.2592 -75.4708 68° East 122 140 5,000  Level Washington Center
02:33PM 39.3639 -75.5200 68° East  Level FlightAware Approximate
02:34PM 39.3759 -75.4821 68° East  Level FlightAware Approximate
02:34PM 39.2871 -75.4329 46° Northeast  Level Estimated
02:35PM 39.3879 -75.4443 68° East  Level FlightAware Approximate
02:36PM 39.3998 -75.4065 68° East  Level FlightAware Approximate
02:37PM 39.4117 -75.3686 68° East  Level FlightAware Approximate
02:37PM 39.3444 -75.3206 47° Northeast 122 140 5,000  Level Washington Center
02:38PM 39.4237 -75.3308 68° East  Level FlightAware Approximate
02:39PM 39.3740 -75.2530 61° Northeast  Level FlightAware Approximate
02:41PM 39.4395 -75.2257 46° Northeast  Level Estimated
02:41PM 39.4169 -75.1886 49° Northeast 116 133 5,000  Level Washington Center
02:42PM 39.4613 -75.1960 47° Northeast  Level Estimated
02:43PM 39.4507 -75.1244 56° Northeast  Level FlightAware Approximate
02:44PM 39.4811 -75.0700 57° Northeast 116 133 5,000  Level Washington Center
02:46PM 39.5287 -75.0485 49° Northeast  Level Estimated
02:46PM 39.5033 -75.0261 57° Northeast  Level FlightAware Approximate
02:50PM 39.6065 -74.9210 57° Northeast  Level Estimated
02:53PM 39.5925 -74.8485 57° Northeast  Level FlightAware Approximate
02:54PM 39.6097 -74.8141 57° Northeast  Level FlightAware Approximate
02:55PM 39.6269 -74.7797 57° Northeast  Level FlightAware Approximate
02:56PM 39.6441 -74.7452 57° Northeast  Level FlightAware Approximate
02:57PM 39.6627 -74.7122 52° Northeast  Level FlightAware Approximate
02:58PM 39.6821 -74.6798 52° Northeast  Level FlightAware Approximate
02:59PM 39.7014 -74.6473 57° Northeast  Level FlightAware Approximate
03:00PM 39.7186 -74.6129 57° Northeast  Level FlightAware Approximate
03:01PM 39.7359 -74.5785 57° Northeast  Level FlightAware Approximate
03:02PM 39.7531 -74.5440 57° Northeast  Level FlightAware Approximate
03:03PM 39.7703 -74.5096 57° Northeast  Level FlightAware Approximate
03:04PM 39.7870 -74.4762 57° Northeast  Level FlightAware Approximate
03:05PM 39.8036 -74.4429 57° Northeast  Level FlightAware Approximate
03:06PM 39.8220 -74.4118 35° Northeast  Level FlightAware Approximate
03:07PM 39.8471 -74.3891 35° Northeast  Level FlightAware Approximate
03:08PM 39.8722 -74.3663 35° Northeast  Level FlightAware Approximate
03:08PM 39.9667 -74.2833 43° Northeast 117 135 5,000  Level New York TRACON
03:09PM 39.8973 -74.3435 35° Northeast  Level FlightAware Approximate
03:09PM 40.0000 -74.2667 21° North 122 140 5,000  Level New York TRACON
03:10PM 39.9223 -74.3207 35° Northeast  Level FlightAware Approximate
03:10PM 40.0167 -74.2333 57° Northeast 114 131 5,000  Level New York TRACON
03:11PM 39.9474 -74.2979 35° Northeast  Level FlightAware Approximate
03:11PM 40.0500 -74.2167 21° North 115 132 5,000  Level New York TRACON
03:12PM 39.9725 -74.2751 35° Northeast  Level FlightAware Approximate
03:12PM 40.0667 -74.1833 57° Northeast 122 140 5,000  Level New York TRACON
03:13PM 39.9975 -74.2523 35° Northeast  Level FlightAware Approximate
03:13PM 40.1000 -74.1667 21° North 118 136 4,900  Level New York TRACON
03:14PM 40.0203 -74.2257 43° Northeast  Level FlightAware Approximate
03:14PM 40.1333 -74.1500 21° North 118 136 5,000  Level New York TRACON
03:15PM 40.1667 -74.1167 37° Northeast 128 147 5,000  Level New York TRACON
03:16PM 40.1833 -74.1000 37° Northeast 124 143 5,000  Level New York TRACON
03:17PM 40.2167 -74.0833 21° North 115 132 5,000  Level New York TRACON
03:18PM 40.2500 -74.0667 21° North 119 137 5,000  Level New York TRACON
03:19PM 40.2833 -74.0333 37° Northeast 123 142 5,000  Level New York TRACON
03:20PM 40.3000 -74.0167 37° Northeast 120 138 5,000  Level New York TRACON
03:21PM 40.3333 -74.0000 21° North 121 139 5,000  Level New York TRACON
03:22PM 40.3667 -73.9667 37° Northeast 114 131 5,000  Level New York TRACON
03:23PM 40.3833 -73.9500 37° Northeast 115 132 5,000  Level New York TRACON
03:24PM 40.4167 -73.9333 21° North 122 140 5,000  Level New York TRACON
03:25PM 40.4500 -73.9167 21° North 117 135 5,000  Level New York TRACON
03:26PM 40.4833 -73.8833 37° Northeast 114 131 5,000  Level New York TRACON
03:27PM 40.5000 -73.8667 37° Northeast 119 137 5,000  Level New York TRACON
03:28PM 40.5333 -73.8500 21° North 119 137 5,000  Level New York TRACON
03:29PM 40.5667 -73.8167 37° Northeast 117 135 5,000  Level New York TRACON
03:30PM 40.5833 -73.8000 37° Northeast 116 133 5,000 -240 Level New York TRACON
03:31PM 40.6167 -73.7667 37° Northeast 112 129 4,600 -480 Descending New York TRACON
03:32PM 40.6333 -73.7500 37° Northeast 114 131 4,100 -540 Descending New York TRACON
03:33PM 40.6500 -73.7000 66° East 122 140 3,600 -540 Descending New York TRACON
03:34PM 40.6667 -73.6667 57° Northeast 124 143 3,100 -360 Descending New York TRACON
03:35PM 40.6833 -73.6333 57° Northeast 117 135 2,900 -360 Descending New York TRACON
03:36PM 40.7000 -73.6000 57° Northeast 117 135 2,400 -480 Descending New York TRACON
03:37PM 40.7167 -73.5500 66° East 122 140 2,000 -180 Descending New York TRACON
03:38PM 40.7333 -73.5167 57° Northeast 121 139 2,100 -60 Climbing New York TRACON
03:39PM 40.7500 -73.4833 57° Northeast 127 146 1,900 -240 Descending New York TRACON
03:40PM 40.7667 -73.4333 66° East 127 146 1,700 -480 Descending New York TRACON
03:41PM 40.7667 -73.4167 90° East 126 145 1,000 -660 Descending New York TRACON
03:42PM 40.7500 -73.4167 180° South 68 78 400 -600 Descending New York TRACON
03:44PM 40.7288 -73.4134 159° South  Level Estimated
03:51PM 40.7288 -73.4134 78° East  Level Estimated
03:52PM 40.7288 -73.4134 78° East  Level Estimated